createdAt,value
2022-10-02T00:00:22.847Z,6.23
2022-10-02T00:02:55.832Z,7.20
2022-10-02T00:05:29.595Z,6.97
2022-10-02T00:08:02.521Z,7.13
2022-10-02T00:10:36.364Z,7.40
2022-10-02T00:13:12.721Z,7.70
2022-10-02T00:15:43.483Z,7.33
2022-10-02T00:18:16.212Z,7.33
2022-10-02T00:20:57.121Z,8.53
2022-10-02T00:23:32.762Z,8.23
2022-10-02T00:26:06.975Z,7.70
2022-10-02T00:28:47.768Z,7.40
2022-10-02T00:31:35.299Z,6.97
2022-10-02T00:34:21.875Z,6.50
2022-10-02T00:37:00.011Z,7.17
2022-10-02T00:39:41.860Z,7.17
2022-10-02T00:42:37.681Z,7.03
2022-10-02T00:45:51.922Z,6.50
2022-10-02T00:48:52.722Z,6.80
2022-10-02T00:51:38.441Z,7.13
2022-10-02T00:54:25.615Z,6.83
2022-10-02T00:57:03.513Z,7.07
2022-10-02T00:59:51.696Z,7.00
2022-10-02T01:03:00.546Z,7.47
2022-10-02T01:05:31.112Z,7.10
2022-10-02T01:08:01.023Z,7.37
2022-10-02T01:10:30.845Z,7.97
2022-10-02T01:13:00.101Z,7.27
2022-10-02T01:15:32.144Z,7.83
2022-10-02T01:18:02.385Z,8.27
2022-10-02T01:20:37.685Z,7.97
2022-10-02T01:23:24.830Z,7.63
2022-10-02T01:25:55.545Z,8.23
2022-10-02T01:28:24.796Z,8.40
2022-10-02T01:30:59.441Z,8.67
2022-10-02T01:33:28.486Z,7.50
2022-10-02T01:35:57.713Z,7.70
2022-10-02T01:38:28.026Z,8.63
2022-10-02T01:40:58.411Z,8.40
2022-10-02T01:43:32.427Z,8.70
2022-10-02T01:46:15.726Z,8.40
2022-10-02T01:48:48.576Z,7.90
2022-10-02T01:51:30.704Z,8.10
2022-10-02T01:54:11.375Z,8.20
2022-10-02T01:56:54.668Z,7.83
2022-10-02T01:59:39.045Z,7.57
2022-10-02T02:02:16.096Z,8.43
2022-10-02T02:04:54.551Z,8.10
2022-10-02T02:07:35.754Z,8.03
2022-10-02T02:10:16.179Z,8.10
2022-10-02T02:12:53.183Z,7.40
2022-10-02T02:15:27.242Z,7.60
2022-10-02T02:18:00.133Z,8.10
2022-10-02T02:20:33.314Z,7.57
2022-10-02T02:23:09.158Z,7.53
2022-10-02T02:25:42.498Z,7.73
2022-10-02T02:28:17.650Z,7.80
2022-10-02T02:30:51.017Z,7.30
2022-10-02T02:33:26.277Z,7.77
2022-10-02T02:36:00.412Z,8.13
2022-10-02T02:38:34.279Z,8.17
2022-10-02T02:41:08.292Z,8.50
2022-10-02T02:43:45.955Z,8.70
2022-10-02T02:46:23.252Z,7.97
2022-10-02T02:48:58.771Z,8.60
2022-10-02T02:51:32.577Z,8.73
2022-10-02T02:54:06.990Z,8.37
2022-10-02T02:56:37.726Z,8.67
2022-10-02T02:59:12.943Z,9.00
2022-10-02T03:01:42.763Z,8.70
2022-10-02T03:04:14.499Z,8.80
2022-10-02T03:06:46.162Z,9.87
2022-10-02T03:09:19.252Z,9.43
2022-10-02T03:11:55.799Z,9.30
2022-10-02T03:14:51.325Z,8.90
2022-10-02T03:17:32.291Z,8.57
2022-10-02T03:20:10.428Z,9.03
2022-10-02T03:22:49.685Z,9.23
2022-10-02T03:25:24.495Z,9.60
2022-10-02T03:28:00.432Z,9.60
2022-10-02T03:30:33.137Z,9.57
2022-10-02T03:33:03.582Z,9.60
2022-10-02T03:35:33.852Z,9.50
2022-10-02T03:38:08.041Z,9.63
2022-10-02T03:40:37.120Z,9.23
2022-10-02T03:43:06.303Z,9.10
2022-10-02T03:45:50.867Z,9.47
2022-10-02T03:48:20.403Z,10.03
2022-10-02T03:50:51.398Z,9.53
2022-10-02T03:53:23.171Z,9.93
2022-10-02T03:55:59.378Z,10.27
2022-10-02T03:58:28.515Z,10.10
2022-10-02T04:01:04.142Z,10.10
2022-10-02T04:03:36.417Z,10.30
2022-10-02T04:06:11.184Z,10.67
2022-10-02T04:08:46.054Z,9.43
2022-10-02T04:11:18.711Z,10.10
2022-10-02T04:13:51.894Z,10.00
2022-10-02T04:16:29.183Z,10.17
2022-10-02T04:19:02.845Z,9.90
2022-10-02T04:21:37.972Z,9.73
2022-10-02T04:24:15.561Z,9.53
2022-10-02T04:26:55.534Z,9.90
2022-10-02T04:29:28.665Z,10.53
2022-10-02T04:32:09.241Z,10.70
2022-10-02T04:34:38.283Z,10.47
2022-10-02T04:37:21.642Z,10.17
2022-10-02T04:40:05.846Z,10.10
2022-10-02T04:42:49.875Z,10.30
2022-10-02T04:45:39.110Z,11.07
2022-10-02T04:48:36.737Z,11.50
2022-10-02T04:51:18.705Z,11.70
2022-10-02T04:54:15.336Z,12.03
2022-10-02T04:57:02.175Z,12.30
2022-10-02T04:59:43.866Z,11.90
2022-10-02T05:02:28.692Z,11.67
2022-10-02T05:05:11.766Z,11.50
2022-10-02T05:07:57.145Z,11.87
2022-10-02T05:10:56.097Z,12.20
2022-10-02T05:13:40.366Z,11.47
2022-10-02T05:16:29.731Z,10.80
2022-10-02T05:19:27.380Z,11.23
2022-10-02T05:22:15.935Z,11.40
2022-10-02T05:24:56.816Z,10.70
2022-10-02T05:27:55.983Z,10.83
2022-10-02T05:30:25.734Z,9.90
2022-10-02T05:33:33.309Z,10.27
2022-10-02T05:36:42.591Z,9.37
2022-10-02T05:39:19.826Z,9.70
2022-10-02T05:41:56.139Z,10.07
2022-10-02T05:44:30.105Z,9.80
2022-10-02T05:47:03.012Z,9.47
2022-10-02T05:49:37.202Z,10.63
2022-10-02T05:52:13.255Z,9.77
2022-10-02T05:54:51.370Z,10.53
2022-10-02T05:57:27.626Z,10.17
2022-10-02T06:00:04.579Z,10.13
2022-10-02T06:02:48.695Z,9.77
2022-10-02T06:05:23.488Z,9.03
2022-10-02T06:07:57.761Z,8.67
2022-10-02T06:10:32.296Z,8.70
2022-10-02T06:13:08.841Z,7.93
2022-10-02T06:15:44.486Z,8.60
2022-10-02T06:18:19.652Z,13.40
2022-10-02T06:20:53.806Z,8.60
2022-10-02T06:23:27.638Z,8.73
2022-10-02T06:26:01.321Z,8.77
2022-10-02T06:28:37.670Z,8.80
2022-10-02T06:31:15.370Z,9.33
2022-10-02T06:33:45.610Z,8.77
2022-10-02T06:37:05.416Z,8.73
2022-10-02T06:40:04.069Z,9.87
2022-10-02T06:42:49.831Z,8.60
2022-10-02T06:45:28.645Z,8.73
2022-10-02T06:48:07.572Z,9.20
2022-10-02T06:50:44.661Z,8.43
2022-10-02T06:53:47.790Z,7.70
2022-10-02T06:56:39.543Z,7.80
2022-10-02T06:59:22.173Z,8.10
2022-10-02T07:01:59.480Z,6.70
2022-10-02T07:04:44.277Z,6.97
2022-10-02T07:07:44.296Z,6.33
2022-10-02T07:10:23.324Z,6.47
2022-10-02T07:13:09.719Z,6.20
2022-10-02T07:16:14.181Z,6.07
2022-10-02T07:19:02.643Z,6.27
2022-10-02T07:21:39.807Z,6.83
2022-10-02T07:24:26.346Z,6.30
2022-10-02T07:27:03.412Z,6.80
2022-10-02T07:29:47.798Z,6.53
2022-10-02T07:32:39.682Z,6.90
2022-10-02T07:35:27.223Z,6.93
2022-10-02T07:38:09.302Z,7.13
2022-10-02T07:40:49.329Z,6.10
2022-10-02T07:43:41.293Z,6.43
2022-10-02T07:46:18.206Z,6.07
2022-10-02T07:49:15.639Z,6.03
2022-10-02T07:51:53.994Z,5.50
2022-10-02T07:54:48.213Z,5.10
2022-10-02T07:57:28.997Z,4.80
2022-10-02T08:00:06.487Z,4.63
2022-10-02T08:02:47.256Z,4.63
2022-10-02T08:05:22.098Z,4.37
2022-10-02T08:07:55.716Z,4.37
2022-10-02T08:10:32.827Z,4.47
2022-10-02T08:13:07.618Z,3.77
2022-10-02T08:15:38.920Z,3.97
2022-10-02T08:18:33.730Z,3.30
2022-10-02T08:21:09.598Z,3.50
2022-10-02T08:23:44.156Z,3.00
2022-10-02T08:26:19.807Z,3.40
2022-10-02T08:28:57.179Z,3.07
2022-10-02T08:31:27.345Z,3.33
2022-10-02T08:33:57.852Z,3.77
2022-10-02T08:36:55.529Z,3.17
2022-10-02T08:39:55.316Z,2.90
2022-10-02T08:43:27.324Z,3.13
2022-10-02T08:46:34.425Z,2.60
2022-10-02T08:49:46.260Z,3.30
2022-10-02T08:53:06.068Z,2.90
2022-10-02T08:55:51.105Z,2.67
2022-10-02T08:58:59.559Z,3.00
2022-10-02T09:01:49.615Z,2.80
2022-10-02T09:04:52.945Z,2.87
2022-10-02T09:07:59.252Z,2.53
2022-10-02T09:11:03.936Z,2.73
2022-10-02T09:13:55.607Z,2.73
2022-10-02T09:16:34.872Z,3.13
2022-10-02T09:19:07.748Z,2.57
2022-10-02T09:21:56.315Z,2.70
2022-10-02T09:25:02.653Z,2.50
2022-10-02T09:28:19.711Z,2.90
2022-10-02T09:31:27.105Z,2.80
2022-10-02T09:34:47.691Z,2.60
2022-10-02T09:37:46.320Z,2.73
2022-10-02T09:40:49.023Z,2.73
2022-10-02T09:44:08.888Z,2.70
2022-10-02T09:47:05.341Z,2.60
2022-10-02T09:50:11.555Z,2.43
2022-10-02T09:53:19.736Z,2.47
2022-10-02T09:56:22.600Z,2.73
2022-10-02T09:59:24.330Z,2.33
2022-10-02T10:02:31.690Z,2.53
2022-10-02T10:05:28.969Z,2.80
2022-10-02T10:08:35.840Z,2.30
2022-10-02T10:11:23.768Z,3.20
2022-10-02T10:14:37.323Z,2.28
2022-10-02T10:17:24.559Z,2.30
2022-10-02T10:20:23.053Z,2.40
2022-10-02T10:23:26.575Z,2.28
2022-10-02T10:26:34.831Z,2.50
2022-10-02T10:29:29.974Z,2.28
2022-10-02T10:32:36.155Z,2.30
2022-10-02T10:35:22.884Z,2.33
2022-10-02T10:38:15.087Z,1.98
2022-10-02T10:41:09.612Z,1.90
2022-10-02T10:44:14.468Z,1.85
2022-10-02T10:47:09.405Z,2.00
2022-10-02T10:50:20.754Z,1.98
2022-10-02T10:53:28.519Z,2.10
2022-10-02T10:56:37.131Z,1.92
2022-10-02T10:59:56.543Z,2.37
2022-10-02T11:02:58.019Z,2.42
2022-10-02T11:06:07.574Z,2.47
2022-10-02T11:09:13.407Z,2.10
2022-10-02T11:11:59.399Z,2.20
2022-10-02T11:14:42.984Z,2.07
2022-10-02T11:17:32.637Z,3.00
2022-10-02T11:20:21.518Z,2.70
2022-10-02T11:23:06.695Z,2.87
2022-10-02T11:26:04.467Z,2.00
2022-10-02T11:29:00.671Z,3.17
2022-10-02T11:31:55.013Z,2.90
2022-10-02T11:34:53.817Z,2.67
2022-10-02T11:37:34.416Z,2.60
2022-10-02T11:40:30.305Z,3.07
2022-10-02T11:43:38.453Z,2.70
2022-10-02T11:46:46.244Z,2.77
2022-10-02T11:49:42.684Z,3.03
2022-10-02T11:52:26.393Z,2.70
2022-10-02T11:55:07.347Z,3.47
2022-10-02T11:57:48.214Z,2.77
2022-10-02T12:00:51.738Z,2.40
2022-10-02T12:03:29.580Z,2.50
2022-10-02T12:06:05.004Z,2.37
2022-10-02T12:08:47.655Z,2.50
2022-10-02T12:11:23.169Z,2.20
2022-10-02T12:14:34.498Z,1.80
2022-10-02T12:17:19.045Z,2.13
2022-10-02T12:20:21.297Z,2.37
2022-10-02T12:23:18.578Z,1.77
2022-10-02T12:26:12.737Z,1.83
2022-10-02T12:28:52.595Z,2.30
2022-10-02T12:31:29.335Z,2.20
2022-10-02T12:34:06.027Z,2.23
2022-10-02T12:36:58.599Z,2.53
2022-10-02T12:39:43.267Z,2.40
2022-10-02T12:42:35.751Z,2.07
2022-10-02T12:45:24.347Z,1.83
2022-10-02T12:48:20.266Z,2.30
2022-10-02T12:51:06.147Z,2.10
2022-10-02T12:54:09.067Z,2.93
2022-10-02T12:57:38.767Z,2.53
2022-10-02T13:00:16.600Z,2.30
2022-10-02T13:03:24.404Z,2.30
2022-10-02T13:06:19.358Z,2.43
2022-10-02T13:09:06.279Z,2.40
2022-10-02T13:11:53.671Z,2.50
2022-10-02T13:15:02.241Z,2.43
2022-10-02T13:17:46.519Z,2.50
2022-10-02T13:20:23.478Z,2.67
2022-10-02T13:23:04.599Z,2.40
2022-10-02T13:25:44.680Z,2.30
2022-10-02T13:28:31.843Z,2.63
2022-10-02T13:31:12.317Z,3.00
2022-10-02T13:34:05.989Z,2.37
2022-10-02T13:36:50.147Z,2.20
2022-10-02T13:39:32.869Z,2.97
2022-10-02T13:42:18.397Z,2.87
2022-10-02T13:45:00.846Z,2.47
2022-10-02T13:47:43.679Z,2.50
2022-10-02T13:50:32.599Z,2.73
2022-10-02T13:53:25.956Z,2.90
2022-10-02T13:56:03.078Z,2.43
2022-10-02T13:58:50.838Z,2.77
2022-10-02T14:01:32.035Z,2.80
2022-10-02T14:04:25.477Z,2.40
2022-10-02T14:07:07.027Z,2.90
2022-10-02T14:09:51.837Z,2.60
2022-10-02T14:12:37.438Z,2.30
2022-10-02T14:15:32.117Z,2.27
2022-10-02T14:18:20.028Z,3.43
2022-10-02T14:20:56.190Z,2.50
2022-10-02T14:23:41.429Z,2.70
2022-10-02T14:26:20.750Z,2.63
2022-10-02T14:29:08.930Z,2.50
2022-10-02T14:32:05.461Z,2.93
2022-10-02T14:35:11.848Z,2.80
2022-10-02T14:38:12.810Z,2.73
2022-10-02T14:40:53.192Z,3.00
2022-10-02T14:43:59.439Z,2.57
2022-10-02T14:46:54.951Z,2.73
2022-10-02T14:49:44.362Z,2.60
2022-10-02T14:52:44.242Z,2.90
2022-10-02T14:55:26.435Z,2.43
2022-10-02T14:58:16.524Z,2.53
2022-10-02T15:00:59.361Z,2.73
2022-10-02T15:04:01.288Z,2.70
2022-10-02T15:06:44.953Z,3.30
2022-10-02T15:09:20.633Z,2.90
2022-10-02T15:12:10.794Z,2.60
2022-10-02T15:14:48.481Z,2.70
2022-10-02T15:17:48.766Z,2.70
2022-10-02T15:20:26.801Z,2.90
2022-10-02T15:23:00.286Z,2.97
2022-10-02T15:26:12.314Z,3.27
2022-10-02T15:28:55.897Z,3.07
2022-10-02T15:31:38.206Z,3.00
2022-10-02T15:34:20.489Z,3.00
2022-10-02T15:37:12.442Z,3.10
2022-10-02T15:40:07.009Z,2.90
2022-10-02T15:42:58.948Z,3.00
2022-10-02T15:45:37.814Z,3.27
2022-10-02T15:48:43.821Z,3.00
2022-10-02T15:51:27.525Z,3.60
2022-10-02T15:54:09.564Z,3.23
2022-10-02T15:56:54.125Z,2.77
2022-10-02T15:59:40.526Z,3.00
2022-10-02T16:02:25.348Z,3.17
2022-10-02T16:05:14.529Z,3.23
2022-10-02T16:08:01.562Z,3.43
2022-10-02T16:10:41.005Z,3.90
2022-10-02T16:13:27.242Z,3.30
2022-10-02T16:16:02.901Z,2.90
2022-10-02T16:18:58.204Z,3.40
2022-10-02T16:21:53.167Z,2.80
2022-10-02T16:24:44.203Z,3.37
2022-10-02T16:27:27.633Z,3.40
2022-10-02T16:30:13.258Z,3.33
2022-10-02T16:33:05.966Z,3.40
2022-10-02T16:36:35.481Z,3.20
2022-10-02T16:39:24.205Z,3.57
2022-10-02T16:42:04.206Z,3.53
2022-10-02T16:44:56.768Z,4.67
2022-10-02T16:47:32.128Z,3.93
2022-10-02T16:50:15.886Z,3.40
2022-10-02T16:52:53.006Z,3.77
2022-10-02T16:55:31.887Z,4.00
2022-10-02T16:58:24.762Z,3.80
2022-10-02T17:00:59.631Z,3.70
2022-10-02T17:03:36.127Z,3.80
2022-10-02T17:06:14.366Z,3.90
2022-10-02T17:08:52.445Z,4.70
2022-10-02T17:11:28.765Z,4.07
2022-10-02T17:14:16.124Z,5.60
2022-10-02T17:16:57.027Z,4.97
2022-10-02T17:19:31.890Z,6.37
2022-10-02T17:22:06.046Z,6.40
2022-10-02T17:24:49.406Z,5.90
2022-10-02T17:27:30.042Z,5.10
2022-10-02T17:30:06.033Z,5.60
2022-10-02T17:32:43.552Z,5.50
2022-10-02T17:35:19.234Z,5.07
2022-10-02T17:38:08.753Z,11.53
2022-10-02T17:40:45.641Z,8.47
2022-10-02T17:43:31.724Z,9.77
2022-10-02T17:46:22.993Z,8.10
2022-10-02T17:48:57.568Z,8.07
2022-10-02T17:51:52.448Z,7.77
2022-10-02T17:55:09.410Z,7.93
2022-10-02T17:57:55.087Z,8.30
2022-10-02T18:00:28.433Z,9.10
2022-10-02T18:03:26.845Z,8.13
2022-10-02T18:06:07.073Z,8.43
2022-10-02T18:09:18.756Z,8.97
2022-10-02T18:12:09.962Z,9.43
2022-10-02T18:15:01.872Z,10.63
2022-10-02T18:17:49.154Z,10.63
2022-10-02T18:20:28.754Z,10.37
2022-10-02T18:23:15.448Z,9.80
2022-10-02T18:25:58.126Z,10.73
2022-10-02T18:28:48.081Z,10.67
2022-10-02T18:31:54.520Z,10.43
2022-10-02T18:34:43.605Z,10.43
2022-10-02T18:37:42.402Z,11.17
2022-10-02T18:40:24.205Z,10.30
2022-10-02T18:43:22.408Z,10.27
2022-10-02T18:46:02.716Z,11.40
2022-10-02T18:49:11.192Z,11.63
2022-10-02T18:52:19.312Z,11.90
2022-10-02T18:55:02.034Z,12.20
2022-10-02T18:57:44.474Z,12.30
2022-10-02T19:00:21.841Z,12.33
2022-10-02T19:03:10.764Z,12.70
2022-10-02T19:05:47.926Z,12.67
2022-10-02T19:08:24.730Z,12.37
2022-10-02T19:10:56.565Z,12.53
2022-10-02T19:13:28.526Z,11.40
2022-10-02T19:16:01.540Z,11.97
2022-10-02T19:18:33.290Z,12.67
2022-10-02T19:21:08.723Z,12.03
2022-10-02T19:23:43.072Z,10.97
2022-10-02T19:26:21.731Z,11.80
2022-10-02T19:28:55.475Z,11.13
2022-10-02T19:31:29.159Z,11.30
2022-10-02T19:34:03.486Z,11.03
2022-10-02T19:36:35.885Z,9.73
2022-10-02T19:39:10.713Z,8.73
2022-10-02T19:41:45.754Z,7.73
2022-10-02T19:44:22.208Z,6.97
2022-10-02T19:46:54.505Z,6.63
2022-10-02T19:49:28.765Z,4.80
2022-10-02T19:51:59.114Z,5.40
2022-10-02T19:54:33.285Z,4.97
2022-10-02T19:57:10.233Z,4.67
2022-10-02T19:59:44.243Z,3.57
2022-10-02T20:02:20.228Z,4.33
2022-10-02T20:04:51.201Z,4.07
2022-10-02T20:07:22.525Z,3.87
2022-10-02T20:09:57.272Z,3.73
2022-10-02T20:12:33.272Z,3.63
2022-10-02T20:15:07.553Z,3.20
2022-10-02T20:17:37.805Z,3.20
2022-10-02T20:20:12.684Z,2.57
2022-10-02T20:22:45.678Z,2.57
2022-10-02T20:25:21.401Z,2.77
2022-10-02T20:27:56.075Z,2.40
2022-10-02T20:30:31.668Z,2.50
2022-10-02T20:33:06.868Z,2.60
2022-10-02T20:35:41.198Z,2.73
2022-10-02T20:38:19.988Z,2.80
2022-10-02T20:40:53.708Z,2.77
2022-10-02T20:43:32.506Z,3.20
2022-10-02T20:46:25.642Z,3.80
2022-10-02T20:49:23.677Z,3.47
2022-10-02T20:52:29.680Z,3.27
2022-10-02T20:55:03.358Z,3.27
2022-10-02T20:58:09.638Z,3.50
2022-10-02T21:01:00.400Z,4.33
2022-10-02T21:04:13.388Z,3.90
2022-10-02T21:07:27.468Z,3.70
2022-10-02T21:10:39.718Z,4.37
2022-10-02T21:13:42.598Z,4.30
2022-10-02T21:16:36.346Z,5.00
2022-10-02T21:19:42.153Z,5.33
2022-10-02T21:22:42.908Z,4.97
2022-10-02T21:25:45.589Z,5.03
2022-10-02T21:28:53.228Z,4.90
2022-10-02T21:31:43.227Z,4.63
2022-10-02T21:34:25.790Z,4.60
2022-10-02T21:37:00.708Z,4.63
2022-10-02T21:40:03.068Z,3.80
2022-10-02T21:43:09.079Z,4.33
2022-10-02T21:46:05.010Z,4.23
2022-10-02T21:49:16.787Z,3.57
2022-10-02T21:52:49.388Z,4.20
2022-10-02T21:55:54.427Z,3.77
2022-10-02T21:58:53.307Z,3.30
2022-10-02T22:02:04.112Z,3.10
2022-10-02T22:05:21.374Z,2.77
2022-10-02T22:07:57.518Z,3.00
2022-10-02T22:10:33.879Z,3.03
2022-10-02T22:13:21.591Z,3.00
2022-10-02T22:16:04.442Z,2.97
2022-10-02T22:18:46.477Z,2.47
2022-10-02T22:21:48.957Z,2.93
2022-10-02T22:25:03.361Z,2.77
2022-10-02T22:28:01.940Z,2.80
2022-10-02T22:30:33.149Z,3.13
2022-10-02T22:33:35.518Z,3.50
2022-10-02T22:36:32.590Z,3.47
2022-10-02T22:39:09.917Z,3.30
2022-10-02T22:41:45.121Z,3.20
2022-10-02T22:44:24.348Z,3.40
2022-10-02T22:46:58.468Z,3.50
2022-10-02T22:49:33.987Z,3.50
2022-10-02T22:52:12.237Z,3.90
2022-10-02T22:54:48.439Z,3.60
2022-10-02T22:57:30.402Z,3.50
2022-10-02T23:00:04.718Z,3.13
2022-10-02T23:02:45.196Z,3.57
2022-10-02T23:05:22.454Z,3.77
2022-10-02T23:07:57.974Z,4.27
2022-10-02T23:10:37.162Z,4.00
2022-10-02T23:13:15.691Z,3.67
2022-10-02T23:15:54.862Z,4.03
2022-10-02T23:18:34.922Z,3.70
2022-10-02T23:21:17.002Z,3.80
2022-10-02T23:23:53.773Z,3.63
2022-10-02T23:26:32.042Z,3.10
2022-10-02T23:29:16.615Z,3.30
2022-10-02T23:31:54.972Z,3.17
2022-10-02T23:34:39.530Z,3.03
2022-10-02T23:37:18.970Z,3.70
2022-10-02T23:39:55.691Z,3.90
2022-10-02T23:42:34.929Z,3.80
2022-10-02T23:45:10.572Z,3.30
2022-10-02T23:47:55.083Z,3.73
2022-10-02T23:50:26.811Z,4.00
2022-10-02T23:53:14.522Z,4.97
2022-10-02T23:56:00.891Z,4.10
2022-10-02T23:58:57.452Z,4.13
